Latest Weather Observations for Lismore Airport

IDN60801

Issued at 4:33 am EST Saturday 2 July 2016 (issued every 30 minutes, with the page automatically refreshed every 10 minutes)

About weather observations | Map of weather stations | Latest weather observations for NSW | Other Formats
Station Details ID: 058214 Name: LISMORE AIRPORT AWS Lat: -28.83 Lon: 153.26 Height: 9.21 m
Data from the previous 72 hours. | See also: Recent months at Lismore Airport
Date/Time
EST
Temp
°C
App
Temp
°C
Dew
Point
°C
Rel
Hum
%
Delta-T
°C
Wind Press
QNH
hPa
Press
MSL
hPa
Rain since
9am
mm
Dir  Spd
km/h
Gust
km/h
Spd
kts
Gust
kts
02/04:30am 2.5 -0.4 1.5 93 0.4 N 6 7 3 4 1022.5 1022.5 0.0
02/04:00am 3.0 0.5 1.7 91 0.5 N 4 9 2 5 1022.2 1022.2 0.0
02/03:30am 2.9 0.6 0.6 85 0.9 N 2 7 1 4 1022.3 1022.3 0.0
02/03:00am 5.6 2.6 3.9 89 0.7 NE 9 13 5 7 1022.1 1022.1 0.0
02/02:30am 4.9 1.8 3.6 91 0.5 N 9 13 5 7 1022.1 1022.1 0.0
02/02:00am 4.9 2.7 3.1 88 0.7 NNE 4 9 2 5 1022.0 1022.0 0.0
02/01:30am 5.0 3.6 3.5 90 0.6 CALM 0 0 0 0 1022.0 1022.0 0.0
02/01:00am 5.9 4.5 3.4 84 1.0 CALM 0 0 0 0 1021.8 1021.8 0.0
02/12:30am 7.6 6.2 3.5 75 1.7 CALM 0 0 0 0 1021.6 1021.6 0.0
02/12:00am 8.7 6.1 3.1 68 2.4 NE 6 7 3 4 1021.5 1021.5 0.0
 
Date/Time
EST
Temp
°C
App
Temp
°C
Dew
Point
°C
Rel
Hum
%
Delta-T
°C
Wind Press
QNH
hPa
Press
MSL
hPa
Rain since
9am
mm
Dir  Spd
km/h
Gust
km/h
Spd
kts
Gust
kts
01/11:30pm 10.0 7.0 4.2 67 2.6 E 9 11 5 6 1021.4 1021.4 0.0
01/11:00pm 13.1 8.9 4.0 54 4.1 W 15 20 8 11 1021.2 1021.2 0.0
01/10:30pm 13.6 8.7 4.2 53 4.3 W 19 24 10 13 1020.9 1020.9 0.0
01/10:00pm 14.1 9.2 4.1 51 4.6 W 19 24 10 13 1020.9 1020.9 0.0
01/09:30pm 14.8 9.3 3.9 48 5.0 WNW 22 32 12 17 1020.7 1020.7 0.0
01/09:00pm 15.0 9.5 3.8 47 5.1 W 22 35 12 19 1020.5 1020.5 0.0
01/08:30pm 15.6 8.9 3.7 45 5.5 W 28 37 15 20 1020.3 1020.3 0.0
01/08:00pm 15.8 10.2 3.6 44 5.6 WNW 22 33 12 18 1019.9 1019.9 0.0
01/07:30pm 16.6 10.2 3.0 40 6.2 W 26 35 14 19 1019.4 1019.4 0.0
01/07:00pm 16.5 10.5 3.2 41 6.1 WNW 24 33 13 18 1019.0 1019.0 0.0
01/06:30pm 16.5 11.4 2.9 40 6.2 WNW 19 26 10 14 1018.4 1018.4 0.0
01/06:00pm 15.6 10.9 3.1 43 5.7 WNW 17 22 9 12 1017.8 1017.8 0.0
01/05:30pm 16.8 12.1 3.1 40 6.3 WNW 17 22 9 12 1017.5 1017.5 0.0
01/05:00pm 17.5 12.8 3.0 38 6.7 WNW 17 24 9 13 1016.8 1016.8 0.0
01/04:30pm 19.3 14.2 3.1 34 7.6 WNW 19 24 10 13 1016.6 1016.6 0.0
01/04:00pm 20.3 15.2 3.9 34 7.8 WNW 20 33 11 18 1016.3 1016.3 0.0
01/03:30pm 21.1 15.1 3.3 31 8.5 WNW 24 39 13 21 1015.9 1015.9 0.0
01/03:00pm 21.5 16.6 4.1 32 8.4 NW 19 30 10 16 1015.8 1015.8 0.0
01/02:30pm 21.7 17.5 5.6 35 8.0 NW 17 24 9 13 1015.8 1015.8 0.0
01/02:00pm 21.4 17.5 5.3 35 8.0 NNW 15 28 8 15 1016.2 1016.2 0.0
01/01:30pm 20.9 15.9 4.5 34 8.0 NW 20 32 11 17 1016.5 1016.5 0.0
01/01:00pm 20.4 15.4 4.8 36 7.6 NW 20 32 11 17 1016.8 1016.8 0.0
01/12:30pm 20.6 15.9 5.0 36 7.6 NW 19 26 10 14 1017.1 1017.1 0.0
01/12:00pm 19.9 15.2 5.2 38 7.2 NW 19 26 10 14 1017.4 1017.4 0.0
01/11:30am 19.7 15.0 6.1 41 6.8 NNW 20 28 11 15 1017.8 1017.8 0.0
01/11:00am 19.2 14.3 5.3 40 6.8 NW 20 26 11 14 1018.2 1018.2 0.0
01/10:30am 18.3 13.3 6.5 46 5.9 NNW 22 30 12 16 1019.0 1019.0 0.0
01/10:00am 17.0 14.8 9.2 60 4.0 N 11 17 6 9 1019.7 1019.7 0.0
01/09:30am 14.3 12.7 11.6 84 1.4 N 11 13 6 7 1019.8 1019.8 0.0
01/09:00am 11.7 9.2 11.2 97 0.3 N 15 17 8 9 1019.8 1019.8 0.0
01/08:44am 10.6 8.3 10.3 98 0.2 N 13 17 7 9 1019.9 1019.9 0.0
01/08:38am 9.8 7.2 9.5 98 0.1 N 13 15 7 8 1019.9 1019.9 0.0
01/08:30am 9.0 6.2 8.7 98 0.1 N 13 17 7 9 1019.9 1019.9 0.0
01/08:00am 7.6 5.3 7.3 98 0.1 NNE 9 13 5 7 1019.9 1019.9 0.0
01/07:30am 6.8 4.3 6.5 98 0.1 NNE 9 11 5 6 1019.7 1019.7 0.0
01/07:00am 6.2 2.8 5.9 98 0.1 N 13 15 7 8 1019.4 1019.4 0.0
01/06:30am 6.3 2.9 6.0 98 0.1 NNE 13 17 7 9 1019.0 1019.0 0.0
01/06:00am 7.2 5.3 6.9 98 0.1 NE 6 11 3 6 1019.1 1019.1 0.0
01/05:30am 6.9 4.8 6.6 98 0.1 NNE 7 9 4 5 1018.9 1018.9 0.0
01/05:00am 7.4 4.6 7.1 98 0.1 N 11 13 6 7 1018.6 1018.6 0.0
01/04:30am 7.9 5.6 7.5 97 0.2 NNE 9 13 5 7 1018.3 1018.3 0.0
01/04:26am 7.8 5.5 7.4 97 0.2 NNE 9 11 5 6 1018.3 1018.3 0.0
01/04:21am 7.8 5.1 7.4 97 0.2 NNE 11 11 6 6 1018.3 1018.3 0.0
01/04:00am 7.3 5.4 6.7 96 0.3 NE 6 7 3 4 1018.2 1018.2 0.0
01/03:59am 7.3 5.4 6.7 96 0.3 NE 6 9 3 5 1018.2 1018.2 0.0
01/03:38am 8.5 6.7 8.1 97 0.2 NNE 7 11 4 6 1018.2 1018.2 0.0
01/03:30am 8.8 6.7 8.4 97 0.2 N 9 13 5 7 1018.2 1018.2 0.0
01/03:00am 8.6 7.4 8.2 97 0.2 NE 4 7 2 4 1018.3 1018.3 0.0
01/02:30am 9.0 7.4 8.6 97 0.2 NNE 7 11 4 6 1018.4 1018.4 0.0
01/02:00am 9.1 7.5 8.6 97 0.2 NNE 7 9 4 5 1018.6 1018.6 0.0
01/01:37am 8.7 6.6 8.3 97 0.2 NNE 9 13 5 7 1018.8 1018.8 0.0
01/01:30am 8.4 5.9 8.0 97 0.2 N 11 13 6 7 1018.9 1018.9 0.0
01/01:15am 8.3 7.1 7.9 97 0.2 N 4 9 2 5 1019.0 1019.0 0.0
01/01:00am 7.9 7.2 6.8 93 0.5 CALM 0 0 0 0 1019.2 1019.2 0.0
01/12:30am 9.0 8.6 8.1 94 0.4 CALM 0 0 0 0 1019.2 1019.2 0.0
01/12:00am 9.6 7.2 8.7 94 0.4 NNE 11 13 6 7 1019.3 1019.3 0.0
 
Date/Time
EST
Temp
°C
App
Temp
°C
Dew
Point
°C
Rel
Hum
%
Delta-T
°C
Wind Press
QNH
hPa
Press
MSL
hPa
Rain since
9am
mm
Dir  Spd
km/h
Gust
km/h
Spd
kts
Gust
kts
30/11:30pm 10.3 7.7 9.2 93 0.5 N 13 15 7 8 1019.4 1019.4 0.0
30/11:00pm 10.6 8.4 9.4 92 0.6 N 11 13 6 7 1019.4 1019.4 0.0
30/10:30pm 11.2 8.7 9.8 91 0.7 N 13 15 7 8 1019.5 1019.5 0.0
30/10:00pm 11.9 9.9 10.0 88 1.0 N 11 13 6 7 1019.6 1019.6 0.0
30/09:30pm 12.3 10.4 10.4 88 1.0 N 11 13 6 7 1019.6 1019.6 0.0
30/09:00pm 13.1 11.0 11.0 87 1.1 N 13 15 7 8 1019.7 1019.7 0.0
30/08:30pm 13.0 10.9 11.2 89 0.9 N 13 13 7 7 1019.5 1019.5 0.0
30/08:00pm 13.3 11.7 11.5 89 1.0 N 11 13 6 7 1019.8 1019.8 0.0
30/07:30pm 13.8 12.2 11.7 87 1.1 N 11 13 6 7 1020.0 1020.0 0.0
30/07:00pm 15.4 14.0 12.2 81 1.7 NNE 11 15 6 8 1019.7 1019.7 0.0
30/06:30pm 15.9 14.1 12.1 78 2.1 NNE 13 17 7 9 1019.8 1019.8 0.0
30/06:00pm 16.3 14.5 12.1 76 2.3 NE 13 17 7 9 1019.4 1019.4 0.0
30/05:30pm 16.8 14.5 11.9 73 2.7 NE 15 19 8 10 1019.3 1019.3 0.0
30/05:00pm 17.4 14.7 11.7 69 3.1 ENE 17 24 9 13 1019.1 1019.1 0.0
30/04:30pm 18.7 16.6 11.3 62 4.0 NE 13 19 7 10 1018.9 1018.9 0.0
30/04:00pm 19.8 17.0 8.5 48 5.9 NNE 13 19 7 10 1019.0 1019.0 0.0
30/03:30pm 20.5 17.3 8.5 46 6.3 N 15 20 8 11 1019.0 1019.0 0.0
30/03:00pm 21.1 17.3 7.7 42 6.9 NNW 17 20 9 11 1019.4 1019.4 0.0
30/02:30pm 20.9 18.4 8.2 44 6.6 NNW 11 19 6 10 1019.7 1019.7 0.0
30/02:00pm 20.8 18.8 8.8 46 6.3 NW 9 15 5 8 1020.0 1020.0 0.0
30/01:30pm 20.4 18.3 8.4 46 6.3 NW 9 13 5 7 1020.4 1020.4 0.0
30/01:00pm 20.4 17.6 8.7 47 6.1 NNW 13 17 7 9 1021.0 1021.0 0.0
30/12:30pm 20.1 19.9 10.5 54 5.2 NNE 2 9 1 5 1021.7 1021.7 0.0
30/12:00pm 19.4 18.7 11.4 60 4.4 NW 6 9 3 5 1022.4 1022.4 0.0
30/11:30am 18.3 18.1 11.8 66 3.6 N 4 9 2 5 1023.1 1023.1 0.0
30/11:00am 16.5 16.0 10.8 69 3.0 SW 4 7 2 4 1023.6 1023.6 0.0
30/10:30am 14.3 13.2 9.9 75 2.3 SE 6 9 3 5 1024.2 1024.2 0.0
30/10:00am 12.2 12.2 9.9 86 1.2 CALM 0 0 0 0 1024.6 1024.6 0.0
30/09:30am 10.0 9.8 8.9 93 0.5 CALM 0 0 0 0 1024.8 1024.8 0.0
30/09:29am 9.9 9.6 8.8 93 0.5 CALM 0 4 0 2 1024.8 1024.8 0.0
30/09:09am 8.7 7.2 8.4 98 0.1 NNE 6 9 3 5 1024.8 1024.8 0.0
30/09:00am 8.0 6.1 7.7 98 0.1 N 7 9 4 5 1024.8 1024.8 0.0
30/08:30am 6.1 3.8 5.8 98 0.1 NNE 7 11 4 6 1024.7 1024.7 0.0
30/08:00am 5.0 2.1 4.7 98 0.1 N 9 11 5 6 1024.5 1024.5 0.0
30/07:30am 4.6 1.3 4.3 98 0.1 NNE 11 13 6 7 1024.4 1024.4 0.0
30/07:00am 3.9 0.4 3.6 98 0.1 NNE 11 15 6 8 1024.2 1024.2 0.0
30/06:30am 4.0 0.9 3.7 98 0.1 NNE 9 13 5 7 1024.1 1024.1 0.0
30/06:00am 4.0 1.3 3.7 98 0.1 N 7 9 4 5 1024.0 1024.0 0.0
30/05:30am 3.6 2.2 3.3 98 0.1 CALM 0 0 0 0 1023.9 1023.9 0.0
30/05:00am 4.5 0.8 4.2 98 0.1 N 13 17 7 9 1023.8 1023.8 0.0
30/04:30am 4.5 0.8 4.2 98 0.1 N 13 15 7 8 1023.8 1023.8 0.0
30/04:00am 4.4 1.4 4.1 98 0.1 NNE 9 11 5 6 1023.8 1023.8 0.0
30/03:30am 4.8 1.5 4.5 98 0.1 N 11 15 6 8 1024.0 1024.0 0.0
30/03:00am 5.2 2.0 4.9 98 0.1 NNE 11 15 6 8 1024.2 1024.2 0.0
30/02:30am 5.6 2.1 5.3 98 0.1 N 13 15 7 8 1024.4 1024.4 0.0
30/02:00am 5.7 2.9 5.3 97 0.2 N 9 13 5 7 1024.7 1024.7 0.0
30/01:56am 5.7 2.9 5.3 97 0.2 N 9 11 5 6 1024.7 1024.7 0.0
30/01:50am 5.7 2.9 5.3 97 0.2 N 9 11 5 6 1024.8 1024.8 0.0
30/01:34am 6.1 3.1 5.8 98 0.1 N 11 15 6 8 1024.8 1024.8 0.0
30/01:30am 6.2 3.2 5.9 98 0.1 N 11 13 6 7 1024.9 1024.9 0.0
30/01:00am 6.1 2.7 5.7 97 0.2 N 13 17 7 9 1025.1 1025.1 0.0
30/12:30am 6.6 2.9 6.2 97 0.2 N 15 17 8 9 1025.3 1025.3 0.0
30/12:23am 6.6 3.3 6.2 97 0.2 N 13 15 7 8 1025.3 1025.3 0.0
30/12:21am 6.5 3.1 6.1 97 0.2 N 13 15 7 8 1025.3 1025.3 0.0
30/12:00am 6.6 3.2 6.0 96 0.3 N 13 17 7 9 1025.3 1025.3 0.0
 
Date/Time
EST
Temp
°C
App
Temp
°C
Dew
Point
°C
Rel
Hum
%
Delta-T
°C
Wind Press
QNH
hPa
Press
MSL
hPa
Rain since
9am
mm
Dir  Spd
km/h
Gust
km/h
Spd
kts
Gust
kts
29/11:48pm 6.9 4.3 6.2 95 0.3 N 9 11 5 6 1025.4 1025.4 0.0
29/11:30pm 7.9 5.6 7.3 96 0.3 NNW 9 15 5 8 1025.5 1025.5 0.0
29/11:00pm 8.4 5.8 7.6 95 0.4 NNW 11 15 6 8 1025.8 1025.8 0.0
29/10:30pm 8.7 5.8 8.1 96 0.3 N 13 17 7 9 1025.9 1025.9 0.0
29/10:00pm 8.6 6.0 7.8 95 0.4 N 11 13 6 7 1026.0 1026.0 0.0
29/09:30pm 9.1 6.2 8.2 94 0.4 N 13 15 7 8 1026.0 1026.0 0.0
29/09:00pm 9.2 6.7 8.1 93 0.5 NNE 11 13 6 7 1025.9 1025.9 0.0
29/08:30pm 9.4 6.9 8.3 93 0.5 N 11 13 6 7 1025.9 1025.9 0.0
29/08:00pm 9.7 7.7 8.6 93 0.5 N 9 11 5 6 1026.2 1026.2 0.0
29/07:30pm 9.6 7.6 8.5 93 0.5 NNE 9 11 5 6 1026.2 1026.2 0.0
29/07:00pm 9.4 7.2 8.0 91 0.7 N 9 11 5 6 1026.0 1026.0 0.0
29/06:30pm 9.9 8.2 8.3 90 0.8 N 7 9 4 5 1025.9 1025.9 0.0
29/06:00pm 10.8 10.3 7.9 82 1.4 CALM 0 0 0 0 1025.6 1025.6 0.0
29/05:30pm 11.4 10.8 7.5 77 1.9 CALM 0 0 0 0 1025.2 1025.2 0.0
29/05:00pm 14.6 13.5 8.5 67 3.1 E 4 7 2 4 1025.2 1025.2 0.0
29/04:30pm 16.9 15.0 9.1 60 4.0 SSE 9 11 5 6 1024.9 1024.9 0.0
29/04:00pm 17.9 15.5 8.7 55 4.7 SSE 11 17 6 9 1024.8 1024.8 0.0
29/03:30pm 19.0 16.3 8.9 52 5.3 SSE 13 19 7 10 1024.6 1024.6 0.0
29/03:00pm 18.9 16.0 8.3 50 5.4 WSW 13 19 7 10 1024.4 1024.4 0.0
29/02:30pm 19.0 16.6 8.6 51 5.4 SSW 11 17 6 9 1024.3 1024.3 0.0
29/02:00pm 18.9 16.0 8.3 50 5.4 SW 13 20 7 11 1024.3 1024.3 0.0
29/01:30pm 18.5 15.2 7.9 50 5.4 SSW 15 20 8 11 1024.5 1024.5 0.0
29/01:00pm 18.9 15.7 8.6 51 5.3 S 15 24 8 13 1024.8 1024.8 0.0
29/12:30pm 18.4 15.0 7.5 49 5.5 SSW 15 24 8 13 1025.3 1025.3 0.0
29/12:00pm 18.1 14.3 7.5 50 5.3 SSW 17 24 9 13 1025.7 1025.7 0.0
29/11:30am 17.6 13.8 7.4 51 5.1 SW 17 26 9 14 1026.2 1026.2 0.0
29/11:00am 16.9 12.8 6.1 49 5.2 SSW 17 26 9 14 1026.5 1026.5 0.0
29/10:30am 16.4 12.6 5.7 49 5.2 SW 15 24 8 13 1027.0 1027.0 0.0
29/10:00am 14.6 14.2 8.3 66 3.1 CALM 0 0 0 0 1027.0 1027.0 0.0
29/09:30am 12.5 11.1 9.0 79 1.8 NNE 6 9 3 5 1027.3 1027.3 0.0
29/09:00am 10.1 7.8 7.5 84 1.2 N 9 11 5 6 1027.1 1027.1 0.0
29/08:30am 8.2 5.6 6.3 88 0.9 N 9 13 5 7 1027.1 1027.1 0.0
29/08:00am 7.2 4.6 6.1 93 0.5 N 9 15 5 8 1026.8 1026.8 0.0
29/07:30am 5.8 2.6 5.2 96 0.3 N 11 15 6 8 1026.6 1026.6 0.0
29/07:00am 4.4 1.4 4.0 97 0.2 N 9 13 5 7 1026.3 1026.3 0.0
29/06:30am 3.6 0.8 2.9 95 0.3 N 7 9 4 5 1026.3 1026.3 0.0
29/06:00am 4.2 1.5 3.8 97 0.2 N 7 9 4 5 1026.2 1026.2 0.0
29/05:30am 3.9 1.2 3.6 98 0.1 N 7 11 4 6 1025.8 1025.8 0.0
29/05:00am 2.8 1.2 2.2 96 0.2 CALM 0 6 0 3 1025.5 1025.5 0.0
29/04:34am 4.3 2.2 3.9 97 0.2 N 4 11 2 6 1025.3 1025.3 0.0

Other Formats:

Comma delimited format used in spreadsheet applications
http://www.bom.gov.au/fwo/IDN60801/IDN60801.94572.axf

JavaScript Object Notation format (JSON) in row-major order
http://www.bom.gov.au/fwo/IDN60801/IDN60801.94572.json